createdAt,value
2017-01-13T00:00:50.394Z,3.73
2017-01-13T00:01:51.144Z,3.68
2017-01-13T00:02:51.926Z,3.7
2017-01-13T00:03:52.646Z,3.68
2017-01-13T00:04:53.468Z,3.73
2017-01-13T00:05:54.193Z,3.73
2017-01-13T00:06:54.952Z,3.74
2017-01-13T00:07:55.705Z,3.74
2017-01-13T00:08:56.481Z,3.7
2017-01-13T00:09:57.256Z,3.7
2017-01-13T00:10:58.034Z,3.66
2017-01-13T00:11:58.776Z,3.74
2017-01-13T00:12:59.544Z,3.76
2017-01-13T00:14:00.308Z,3.74
2017-01-13T00:15:01.052Z,3.63
2017-01-13T00:16:01.815Z,3.6
2017-01-13T00:17:02.580Z,3.65
2017-01-13T00:18:03.328Z,3.66
2017-01-13T00:19:04.080Z,3.65
2017-01-13T00:20:04.844Z,3.63
2017-01-13T00:21:05.605Z,3.69
2017-01-13T00:22:06.373Z,3.59
2017-01-13T00:23:07.139Z,3.69
2017-01-13T00:24:07.913Z,3.66
2017-01-13T00:25:08.682Z,3.59
2017-01-13T00:26:09.423Z,3.66
2017-01-13T00:27:10.193Z,3.55
2017-01-13T00:28:10.947Z,3.51
2017-01-13T00:29:11.702Z,3.5
2017-01-13T00:30:12.462Z,3.62
2017-01-13T00:31:13.229Z,3.48
2017-01-13T00:32:13.993Z,3.53
2017-01-13T00:33:14.759Z,3.48
2017-01-13T00:34:15.521Z,3.48
2017-01-13T00:35:16.282Z,3.55
2017-01-13T00:36:17.060Z,3.55
2017-01-13T00:37:17.826Z,3.53
2017-01-13T00:38:18.601Z,3.5
2017-01-13T00:39:19.372Z,3.55
2017-01-13T00:40:20.158Z,3.55
2017-01-13T00:41:20.937Z,3.56
2017-01-13T00:42:21.679Z,3.53
2017-01-13T00:43:22.454Z,3.53
2017-01-13T00:44:23.259Z,3.51
2017-01-13T00:45:24.013Z,3.56
2017-01-13T00:46:24.756Z,3.5
2017-01-13T00:47:25.514Z,3.48
2017-01-13T00:48:26.281Z,3.5
2017-01-13T00:49:27.050Z,3.5
2017-01-13T00:50:27.805Z,3.48
2017-01-13T00:51:28.580Z,3.5
2017-01-13T00:52:29.330Z,3.41
2017-01-13T00:53:30.076Z,3.48
2017-01-13T00:54:30.827Z,3.44
2017-01-13T00:55:31.587Z,3.44
2017-01-13T00:56:32.355Z,3.4
2017-01-13T00:57:33.086Z,3.42
2017-01-13T00:58:33.842Z,3.45
2017-01-13T00:59:34.621Z,3.45
2017-01-13T01:00:35.376Z,3.44
2017-01-13T01:01:36.136Z,3.32
2017-01-13T01:02:36.880Z,3.45
2017-01-13T01:03:37.628Z,3.37
2017-01-13T01:04:38.413Z,3.4
2017-01-13T01:05:39.183Z,3.36
2017-01-13T01:06:39.960Z,3.36
2017-01-13T01:07:40.684Z,3.28
2017-01-13T01:08:41.429Z,3.37
2017-01-13T01:09:42.206Z,3.29
2017-01-13T01:10:42.951Z,3.32
2017-01-13T01:11:43.712Z,3.4
2017-01-13T01:12:44.502Z,3.31
2017-01-13T01:13:45.247Z,3.36
2017-01-13T01:14:45.999Z,3.36
2017-01-13T01:15:46.771Z,3.36
2017-01-13T01:16:47.530Z,3.42
2017-01-13T01:17:48.287Z,3.34
2017-01-13T01:18:49.050Z,3.31
2017-01-13T01:19:49.806Z,3.32
2017-01-13T01:20:50.559Z,3.29
2017-01-13T01:21:51.329Z,3.22
2017-01-13T01:22:52.079Z,3.25
2017-01-13T01:23:52.818Z,3.28
2017-01-13T01:24:53.580Z,3.14
2017-01-13T01:25:54.344Z,3.1
2017-01-13T01:26:55.081Z,3.11
2017-01-13T01:27:55.854Z,3.14
2017-01-13T01:28:56.637Z,3.16
2017-01-13T01:29:57.388Z,3.05
2017-01-13T01:30:58.137Z,3.16
2017-01-13T01:31:58.893Z,3.08
2017-01-13T01:32:59.669Z,3.07
2017-01-13T01:34:00.421Z,3.03
2017-01-13T01:35:01.175Z,3.13
2017-01-13T01:36:01.930Z,3.07
2017-01-13T01:37:02.708Z,2.98
2017-01-13T01:38:03.538Z,2.97
2017-01-13T01:39:04.302Z,2.97
2017-01-13T01:40:05.050Z,2.97
2017-01-13T01:41:05.799Z,2.93
2017-01-13T01:42:06.558Z,2.95
2017-01-13T01:43:07.303Z,2.95
2017-01-13T01:44:08.062Z,2.97
2017-01-13T01:45:08.835Z,2.89
2017-01-13T01:46:09.618Z,2.87
2017-01-13T01:47:10.385Z,2.8
2017-01-13T01:48:11.129Z,2.77
2017-01-13T01:49:11.884Z,2.75
2017-01-13T01:50:12.639Z,2.83
2017-01-13T01:51:13.421Z,2.8
2017-01-13T01:52:14.166Z,2.72
2017-01-13T01:53:14.937Z,2.68
2017-01-13T01:54:15.709Z,2.61
2017-01-13T01:55:16.462Z,2.62
2017-01-13T01:56:17.221Z,2.68
2017-01-13T01:57:17.966Z,2.67
2017-01-13T01:58:18.734Z,2.6
2017-01-13T01:59:19.477Z,2.54
2017-01-13T02:00:20.293Z,2.54
2017-01-13T02:01:21.046Z,2.57
2017-01-13T02:02:21.808Z,2.62
2017-01-13T02:03:22.586Z,2.56
2017-01-13T02:04:23.348Z,2.54
2017-01-13T02:05:24.104Z,2.57
2017-01-13T02:06:24.870Z,2.5
2017-01-13T02:07:25.638Z,2.44
2017-01-13T02:08:26.399Z,2.51
2017-01-13T02:09:27.146Z,2.54
2017-01-13T02:10:27.912Z,2.44
2017-01-13T02:11:28.665Z,2.51
2017-01-13T02:12:29.446Z,2.53
2017-01-13T02:13:30.195Z,2.5
2017-01-13T02:14:30.989Z,2.47
2017-01-13T02:15:31.737Z,2.47
2017-01-13T02:16:32.497Z,2.53
2017-01-13T02:17:33.231Z,2.49
2017-01-13T02:18:33.974Z,2.43
2017-01-13T02:19:34.723Z,2.51
2017-01-13T02:20:35.485Z,2.5
2017-01-13T02:21:36.238Z,2.31
2017-01-13T02:22:36.978Z,2.31
2017-01-13T02:23:37.717Z,2.26
2017-01-13T02:24:38.459Z,2.31
2017-01-13T02:25:39.213Z,2.22
2017-01-13T02:26:39.971Z,2.29
2017-01-13T02:27:40.729Z,2.33
2017-01-13T02:28:41.471Z,2.28
2017-01-13T02:29:42.265Z,2.22
2017-01-13T02:30:43.030Z,2.15
2017-01-13T02:31:43.826Z,2.11
2017-01-13T02:32:44.585Z,2.13
2017-01-13T02:33:45.517Z,2.13
2017-01-13T02:34:46.131Z,2.1
2017-01-13T02:35:46.893Z,2.1
2017-01-13T02:36:47.642Z,2.08
2017-01-13T02:37:48.405Z,2.02
2017-01-13T02:38:49.155Z,1.99
2017-01-13T02:39:52.627Z,1.95
2017-01-13T02:40:53.408Z,2.02
2017-01-13T02:41:54.167Z,1.91
2017-01-13T02:42:54.921Z,1.94
2017-01-13T02:43:55.666Z,1.97
2017-01-13T02:44:56.502Z,1.94
2017-01-13T02:45:57.305Z,1.97
2017-01-13T02:46:58.067Z,2.04
2017-01-13T02:47:58.820Z,1.95
2017-01-13T02:48:59.584Z,2
2017-01-13T02:50:00.322Z,1.92
2017-01-13T02:51:01.755Z,1.99
2017-01-13T02:52:02.893Z,1.95
2017-01-13T02:53:03.730Z,1.87
2017-01-13T02:54:04.482Z,1.94
2017-01-13T02:55:05.255Z,1.94
2017-01-13T02:56:06.026Z,1.89
2017-01-13T02:57:06.775Z,1.89
2017-01-13T02:58:07.816Z,1.88
2017-01-13T02:59:08.311Z,1.74
2017-01-13T03:00:09.057Z,1.87
2017-01-13T03:01:09.825Z,1.88
2017-01-13T03:02:10.593Z,1.7
2017-01-13T03:03:11.349Z,1.85
2017-01-13T03:04:12.111Z,1.84
2017-01-13T03:05:12.871Z,1.8
2017-01-13T03:06:13.625Z,1.78
2017-01-13T03:07:14.384Z,1.78
2017-01-13T03:08:15.148Z,1.77
2017-01-13T03:09:15.905Z,1.87
2017-01-13T03:10:16.663Z,1.87
2017-01-13T03:11:17.415Z,1.73
2017-01-13T03:12:18.192Z,1.85
2017-01-13T03:13:18.960Z,1.87
2017-01-13T03:14:19.725Z,1.77
2017-01-13T03:15:20.528Z,1.85
2017-01-13T03:16:21.282Z,1.8
2017-01-13T03:17:22.054Z,1.76
2017-01-13T03:18:22.809Z,1.8
2017-01-13T03:19:23.592Z,1.78
2017-01-13T03:20:24.349Z,1.74
2017-01-13T03:21:25.127Z,1.66
2017-01-13T03:22:25.886Z,1.68
2017-01-13T03:23:26.618Z,1.71
2017-01-13T03:24:27.403Z,1.67
2017-01-13T03:25:28.142Z,1.76
2017-01-13T03:26:28.880Z,1.71
2017-01-13T03:27:29.648Z,1.74
2017-01-13T03:28:30.391Z,1.77
2017-01-13T03:29:31.151Z,1.81
2017-01-13T03:30:31.896Z,1.77
2017-01-13T03:31:32.633Z,1.77
2017-01-13T03:32:33.374Z,1.78
2017-01-13T03:33:34.118Z,1.74
2017-01-13T03:34:34.872Z,1.76
2017-01-13T03:35:35.614Z,1.76
2017-01-13T03:36:36.373Z,1.78
2017-01-13T03:37:37.116Z,1.81
2017-01-13T03:38:37.866Z,1.8
2017-01-13T03:39:38.620Z,1.77
2017-01-13T03:40:39.386Z,1.78
2017-01-13T03:41:40.155Z,1.81
2017-01-13T03:42:40.909Z,1.74
2017-01-13T03:43:41.667Z,1.7
2017-01-13T03:44:42.441Z,1.77
2017-01-13T03:45:43.188Z,1.76
2017-01-13T03:46:43.939Z,1.77
2017-01-13T03:47:44.712Z,1.6
2017-01-13T03:48:45.452Z,1.66
2017-01-13T03:49:46.210Z,1.78
2017-01-13T03:50:46.968Z,1.77
2017-01-13T03:51:47.723Z,1.77
2017-01-13T03:52:48.475Z,1.7
2017-01-13T03:53:49.247Z,1.84
2017-01-13T03:54:50.051Z,1.8
2017-01-13T03:55:50.800Z,1.84
2017-01-13T03:56:51.549Z,1.74
2017-01-13T03:57:52.309Z,1.71
2017-01-13T03:58:53.075Z,1.76
2017-01-13T03:59:53.836Z,1.66
2017-01-13T04:00:54.578Z,1.71
2017-01-13T04:01:55.362Z,1.59
2017-01-13T04:02:56.128Z,1.67
2017-01-13T04:03:56.897Z,1.63
2017-01-13T04:04:57.620Z,1.78
2017-01-13T04:05:58.402Z,1.62
2017-01-13T04:06:59.165Z,1.63
2017-01-13T04:07:59.922Z,1.67
2017-01-13T04:09:00.685Z,1.67
2017-01-13T04:10:01.460Z,1.66
2017-01-13T04:11:02.211Z,1.67
2017-01-13T04:12:02.955Z,1.67
2017-01-13T04:13:03.764Z,1.76
2017-01-13T04:14:04.509Z,1.63
2017-01-13T04:15:05.281Z,1.62
2017-01-13T04:16:06.031Z,1.63
2017-01-13T04:17:06.768Z,1.63
2017-01-13T04:18:07.529Z,1.68
2017-01-13T04:19:08.288Z,1.62
2017-01-13T04:20:09.040Z,1.66
2017-01-13T04:21:09.806Z,1.67
2017-01-13T04:22:10.561Z,1.67
2017-01-13T04:23:11.300Z,1.6
2017-01-13T04:24:12.068Z,1.63
2017-01-13T04:25:12.815Z,1.63
2017-01-13T04:26:13.583Z,1.63
2017-01-13T04:27:14.346Z,1.7
2017-01-13T04:28:15.120Z,1.62
2017-01-13T04:29:15.873Z,1.6
2017-01-13T04:30:16.645Z,1.52
2017-01-13T04:31:17.395Z,1.59
2017-01-13T04:32:18.149Z,1.5
2017-01-13T04:33:18.884Z,1.55
2017-01-13T04:34:19.655Z,1.56
2017-01-13T04:35:20.402Z,1.62
2017-01-13T04:36:21.166Z,1.58
2017-01-13T04:37:21.934Z,1.56
2017-01-13T04:38:22.721Z,1.59
2017-01-13T04:39:23.476Z,1.63
2017-01-13T04:40:24.221Z,1.56
2017-01-13T04:41:24.973Z,1.53
2017-01-13T04:42:25.729Z,1.53
2017-01-13T04:43:26.481Z,1.52
2017-01-13T04:44:27.222Z,1.56
2017-01-13T04:45:27.970Z,1.5
2017-01-13T04:46:28.717Z,1.56
2017-01-13T04:47:29.477Z,1.55
2017-01-13T04:48:30.226Z,1.53
2017-01-13T04:49:30.991Z,1.55
2017-01-13T04:50:31.749Z,1.5
2017-01-13T04:51:32.506Z,1.5
2017-01-13T04:52:33.249Z,1.56
2017-01-13T04:53:34.014Z,1.49
2017-01-13T04:54:34.781Z,1.52
2017-01-13T04:55:35.518Z,1.49
2017-01-13T04:56:36.300Z,1.5
2017-01-13T04:57:37.034Z,1.42
2017-01-13T04:58:37.774Z,1.38
2017-01-13T04:59:38.544Z,1.4
2017-01-13T05:00:39.278Z,1.4
2017-01-13T05:01:40.043Z,1.45
2017-01-13T05:02:40.797Z,1.49
2017-01-13T05:03:41.551Z,1.52
2017-01-13T05:04:42.286Z,1.4
2017-01-13T05:05:43.038Z,1.38
2017-01-13T05:06:43.791Z,1.53
2017-01-13T05:07:44.541Z,1.37
2017-01-13T05:08:45.284Z,1.35
2017-01-13T05:09:46.030Z,1.41
2017-01-13T05:10:46.800Z,1.34
2017-01-13T05:11:47.562Z,1.34
2017-01-13T05:12:48.326Z,1.37
2017-01-13T05:13:49.079Z,1.44
2017-01-13T05:14:49.831Z,1.34
2017-01-13T05:15:50.563Z,1.3
2017-01-13T05:16:51.329Z,1.37
2017-01-13T05:17:52.071Z,1.37
2017-01-13T05:18:52.833Z,1.37
2017-01-13T05:19:53.587Z,1.38
2017-01-13T05:20:54.333Z,1.31
2017-01-13T05:21:55.101Z,1.31
2017-01-13T05:22:55.868Z,1.31
2017-01-13T05:23:56.673Z,1.22
2017-01-13T05:24:57.426Z,1.26
2017-01-13T05:25:58.178Z,1.24
2017-01-13T05:26:58.941Z,1.24
2017-01-13T05:27:59.691Z,1.31
2017-01-13T05:29:00.422Z,1.38
2017-01-13T05:30:08.027Z,1.34
2017-01-13T05:31:08.775Z,1.3
2017-01-13T05:32:09.569Z,1.34
2017-01-13T05:33:10.420Z,1.32
2017-01-13T05:34:11.279Z,1.28
2017-01-13T05:35:12.024Z,1.34
2017-01-13T05:36:13.393Z,1.35
2017-01-13T05:37:14.496Z,1.28
2017-01-13T05:38:15.224Z,1.34
2017-01-13T05:39:15.997Z,1.35
2017-01-13T05:40:16.750Z,1.37
2017-01-13T05:41:17.510Z,1.37
2017-01-13T05:42:18.250Z,1.38
2017-01-13T05:43:18.988Z,1.32
2017-01-13T05:44:19.746Z,1.26
2017-01-13T05:45:20.544Z,1.31
2017-01-13T05:46:21.293Z,1.35
2017-01-13T05:47:22.053Z,1.34
2017-01-13T05:48:22.892Z,1.38
2017-01-13T05:49:23.629Z,1.34
2017-01-13T05:50:24.385Z,1.37
2017-01-13T05:51:25.163Z,1.31
2017-01-13T05:52:25.945Z,1.37
2017-01-13T05:53:26.676Z,1.37
2017-01-13T05:54:27.446Z,1.53
2017-01-13T05:55:28.228Z,1.44
2017-01-13T05:56:28.952Z,1.48
2017-01-13T05:57:29.712Z,1.42
2017-01-13T05:58:30.480Z,1.45
2017-01-13T05:59:31.229Z,1.42
2017-01-13T06:00:31.973Z,1.4
2017-01-13T06:01:32.734Z,1.44
2017-01-13T06:02:33.487Z,1.38
2017-01-13T06:03:34.273Z,1.4
2017-01-13T06:04:35.023Z,1.42
2017-01-13T06:05:35.778Z,1.4
2017-01-13T06:06:36.519Z,1.45
2017-01-13T06:07:37.273Z,1.44
2017-01-13T06:08:38.043Z,1.42
2017-01-13T06:09:38.848Z,1.42
2017-01-13T06:10:39.618Z,1.42
2017-01-13T06:11:40.355Z,1.44
2017-01-13T06:12:41.115Z,1.37
2017-01-13T06:13:41.865Z,1.4
2017-01-13T06:14:42.628Z,1.44
2017-01-13T06:15:43.365Z,1.49
2017-01-13T06:16:44.145Z,1.45
2017-01-13T06:17:44.900Z,1.48
2017-01-13T06:18:45.653Z,1.49
2017-01-13T06:19:46.399Z,1.5
2017-01-13T06:20:47.152Z,1.53
2017-01-13T06:21:47.904Z,1.49
2017-01-13T06:22:48.666Z,1.45
2017-01-13T06:23:49.417Z,1.45
2017-01-13T06:24:50.171Z,1.42
2017-01-13T06:25:50.940Z,1.49
2017-01-13T06:26:51.691Z,1.49
2017-01-13T06:27:52.453Z,1.58
2017-01-13T06:28:53.239Z,1.5
2017-01-13T06:29:53.999Z,1.49
2017-01-13T06:30:54.769Z,1.49
2017-01-13T06:31:55.526Z,1.52
2017-01-13T06:32:56.260Z,1.52
2017-01-13T06:33:57.008Z,1.55
2017-01-13T06:34:57.760Z,1.58
2017-01-13T06:35:58.499Z,1.44
2017-01-13T06:36:59.272Z,1.59
2017-01-13T06:38:00.013Z,1.56
2017-01-13T06:39:00.811Z,1.53
2017-01-13T06:40:01.661Z,1.49
2017-01-13T06:41:02.448Z,1.59
2017-01-13T06:42:03.222Z,1.52
2017-01-13T06:43:03.971Z,1.52
2017-01-13T06:44:04.769Z,1.52
2017-01-13T06:45:05.547Z,1.53
2017-01-13T06:46:06.308Z,1.55
2017-01-13T06:47:07.079Z,1.56
2017-01-13T06:48:07.845Z,1.59
2017-01-13T06:49:08.586Z,1.63
2017-01-13T06:50:09.329Z,1.67
2017-01-13T06:51:10.075Z,1.59
2017-01-13T06:52:10.815Z,1.6
2017-01-13T06:53:11.552Z,1.58
2017-01-13T06:54:12.315Z,1.66
2017-01-13T06:55:13.042Z,1.66
2017-01-13T06:56:13.878Z,1.66
2017-01-13T06:57:14.618Z,1.62
2017-01-13T06:58:15.362Z,1.71
2017-01-13T06:59:16.113Z,1.6
2017-01-13T07:00:16.895Z,1.58
2017-01-13T07:01:17.645Z,1.67
2017-01-13T07:02:18.379Z,1.66
2017-01-13T07:03:19.169Z,1.63
2017-01-13T07:04:19.917Z,1.68
2017-01-13T07:05:20.658Z,1.62
2017-01-13T07:06:21.407Z,1.66
2017-01-13T07:07:22.156Z,1.7
2017-01-13T07:08:22.923Z,1.66
2017-01-13T07:09:23.672Z,1.66
2017-01-13T07:10:24.459Z,1.66
2017-01-13T07:11:25.205Z,1.63
2017-01-13T07:12:25.944Z,1.67
2017-01-13T07:13:26.709Z,1.62
2017-01-13T07:14:27.462Z,1.62
2017-01-13T07:15:28.216Z,1.66
2017-01-13T07:16:28.976Z,1.6
2017-01-13T07:17:29.720Z,1.59
2017-01-13T07:18:30.459Z,1.66
2017-01-13T07:19:31.224Z,1.67
2017-01-13T07:20:31.997Z,1.62
2017-01-13T07:21:32.771Z,1.7
2017-01-13T07:22:33.555Z,1.68
2017-01-13T07:23:34.311Z,1.6
2017-01-13T07:24:35.058Z,1.6
2017-01-13T07:25:35.816Z,1.77
2017-01-13T07:26:36.561Z,1.74
2017-01-13T07:27:37.325Z,1.7
2017-01-13T07:28:38.104Z,1.76
2017-01-13T07:29:38.857Z,1.62
2017-01-13T07:30:39.589Z,1.76
2017-01-13T07:31:40.326Z,1.7
2017-01-13T07:32:41.140Z,1.74
2017-01-13T07:33:41.902Z,1.76
2017-01-13T07:34:42.655Z,1.78
2017-01-13T07:35:43.401Z,1.77
2017-01-13T07:36:44.140Z,1.8
2017-01-13T07:37:44.908Z,1.78
2017-01-13T07:38:45.661Z,1.74
2017-01-13T07:39:46.417Z,1.81
2017-01-13T07:40:47.170Z,1.78
2017-01-13T07:41:47.943Z,1.81
2017-01-13T07:42:48.690Z,1.85
2017-01-13T07:43:49.449Z,1.76
2017-01-13T07:44:50.193Z,1.76
2017-01-13T07:45:50.951Z,1.74
2017-01-13T07:46:51.811Z,1.74
2017-01-13T07:47:52.571Z,1.71
2017-01-13T07:48:53.375Z,1.73
2017-01-13T07:49:54.137Z,1.68
2017-01-13T07:50:54.896Z,1.67
2017-01-13T07:51:56.176Z,1.77
2017-01-13T07:52:58.904Z,1.74
2017-01-13T07:54:01.365Z,1.77
2017-01-13T07:55:02.222Z,1.76
2017-01-13T07:56:03.744Z,1.8
2017-01-13T07:57:04.964Z,1.76
2017-01-13T07:58:09.251Z,1.78
2017-01-13T07:59:10.077Z,1.81
2017-01-13T08:00:11.179Z,1.81
2017-01-13T08:01:15.180Z,1.8
2017-01-13T08:02:16.026Z,1.8
2017-01-13T08:03:17.230Z,1.84
2017-01-13T08:04:18.011Z,1.77
2017-01-13T08:05:18.827Z,1.73
2017-01-13T08:06:19.641Z,1.84
2017-01-13T08:07:20.531Z,1.88
2017-01-13T08:08:21.264Z,1.87
2017-01-13T08:09:22.074Z,1.81
2017-01-13T08:10:22.850Z,1.89
2017-01-13T08:11:23.651Z,1.97
2017-01-13T08:12:24.407Z,1.87
2017-01-13T08:13:25.208Z,1.91
2017-01-13T08:14:25.991Z,2.11
2017-01-13T08:15:26.787Z,2.22
2017-01-13T08:16:27.835Z,2.15
2017-01-13T08:17:28.599Z,2.07
2017-01-13T08:18:29.419Z,2.1
2017-01-13T08:19:30.211Z,1.94
2017-01-13T08:20:31.165Z,2
2017-01-13T08:21:31.964Z,2.02
2017-01-13T08:22:32.759Z,1.89
2017-01-13T08:23:33.558Z,1.89
2017-01-13T08:24:34.341Z,1.95
2017-01-13T08:25:35.149Z,1.94
2017-01-13T08:26:35.962Z,2
2017-01-13T08:27:36.785Z,2.02
2017-01-13T08:28:37.589Z,2.1
2017-01-13T08:29:38.399Z,1.99
2017-01-13T08:30:39.222Z,2.11
2017-01-13T08:31:40.078Z,2.08
2017-01-13T08:32:40.893Z,2.26
2017-01-13T08:33:41.723Z,2.39
2017-01-13T08:34:42.530Z,2.22
2017-01-13T08:35:43.368Z,2.25
2017-01-13T08:36:44.198Z,2.22
2017-01-13T08:37:45.002Z,2.15
2017-01-13T08:38:45.818Z,2.08
2017-01-13T08:39:46.622Z,2.08
2017-01-13T08:40:47.435Z,2.1
2017-01-13T08:41:48.201Z,2.1
2017-01-13T08:42:49.011Z,2.13
2017-01-13T08:43:49.851Z,2.1
2017-01-13T08:44:50.643Z,2.13
2017-01-13T08:45:51.483Z,2.1
2017-01-13T08:46:52.256Z,2.13
2017-01-13T08:47:53.064Z,2.13
2017-01-13T08:48:53.876Z,2.11
2017-01-13T08:49:54.745Z,2.07
2017-01-13T08:50:55.678Z,2.1
2017-01-13T08:51:56.614Z,2.14
2017-01-13T08:52:57.436Z,2.08
2017-01-13T08:53:58.264Z,2.1
2017-01-13T08:54:59.075Z,2.14
2017-01-13T08:55:59.880Z,2.1
2017-01-13T08:57:00.682Z,2.11
2017-01-13T08:58:01.500Z,2.11
2017-01-13T08:59:02.312Z,2.08
2017-01-13T09:00:03.132Z,2.08
2017-01-13T09:01:03.958Z,2.13
2017-01-13T09:02:04.785Z,2.08
2017-01-13T09:03:05.597Z,2.11
2017-01-13T09:04:06.429Z,2.08
2017-01-13T09:05:07.237Z,2.08
2017-01-13T09:06:08.047Z,2.1
2017-01-13T09:07:08.823Z,2.18
2017-01-13T09:08:09.652Z,2.15
2017-01-13T09:09:10.447Z,2.14
2017-01-13T09:10:11.198Z,2.26
2017-01-13T09:11:11.963Z,2.18
2017-01-13T09:12:12.719Z,2.18
2017-01-13T09:13:13.485Z,2.28
2017-01-13T09:14:14.256Z,2.24
2017-01-13T09:15:14.990Z,2.28
2017-01-13T09:16:15.767Z,2.28
2017-01-13T09:17:16.527Z,2.29
2017-01-13T09:18:17.314Z,2.31
2017-01-13T09:19:18.092Z,2.36
2017-01-13T09:20:18.855Z,2.33
2017-01-13T09:21:19.619Z,2.36
2017-01-13T09:22:20.370Z,2.38
2017-01-13T09:23:21.155Z,2.38
2017-01-13T09:24:21.926Z,2.39
2017-01-13T09:25:22.704Z,2.42
2017-01-13T09:26:23.457Z,2.39
2017-01-13T09:27:24.199Z,2.44
2017-01-13T09:28:24.992Z,2.43
2017-01-13T09:29:25.750Z,2.38
2017-01-13T09:30:26.511Z,2.46
2017-01-13T09:31:27.264Z,2.46
2017-01-13T09:32:28.029Z,2.46
2017-01-13T09:33:28.818Z,2.42
2017-01-13T09:34:29.578Z,2.46
2017-01-13T09:35:30.348Z,2.39
2017-01-13T09:36:31.107Z,2.53
2017-01-13T09:37:31.864Z,2.56
2017-01-13T09:38:32.638Z,2.5
2017-01-13T09:39:33.408Z,2.51
2017-01-13T09:40:34.187Z,2.53
2017-01-13T09:41:34.952Z,2.51
2017-01-13T09:42:35.721Z,2.53
2017-01-13T09:43:36.503Z,2.62
2017-01-13T09:44:37.278Z,2.56
2017-01-13T09:45:38.052Z,2.5
2017-01-13T09:46:38.919Z,2.61
2017-01-13T09:47:39.677Z,2.65
2017-01-13T09:48:40.446Z,2.62
2017-01-13T09:49:41.207Z,2.61
2017-01-13T09:50:41.979Z,2.65
2017-01-13T09:51:42.746Z,2.61
2017-01-13T09:52:43.495Z,2.61
2017-01-13T09:53:44.253Z,2.65
2017-01-13T09:54:45.024Z,2.62
2017-01-13T09:55:45.799Z,2.65
2017-01-13T09:56:46.583Z,2.64
2017-01-13T09:57:47.342Z,2.72
2017-01-13T09:58:48.140Z,2.72
2017-01-13T09:59:48.923Z,2.72
2017-01-13T10:00:49.788Z,2.69
2017-01-13T10:01:50.661Z,2.6
2017-01-13T10:02:51.416Z,2.72
2017-01-13T10:03:52.154Z,2.79
2017-01-13T10:04:52.921Z,2.69
2017-01-13T10:05:53.672Z,2.61
2017-01-13T10:06:54.432Z,2.68
2017-01-13T10:07:55.238Z,2.72
2017-01-13T10:08:55.996Z,2.6
2017-01-13T10:09:56.760Z,2.57
2017-01-13T10:10:57.564Z,2.68
2017-01-13T10:11:58.312Z,2.72
2017-01-13T10:12:59.068Z,2.68
2017-01-13T10:13:59.848Z,2.72
2017-01-13T10:15:00.634Z,2.74
2017-01-13T10:16:01.390Z,2.79
2017-01-13T10:17:02.227Z,2.72
2017-01-13T10:18:02.996Z,2.8
2017-01-13T10:19:03.757Z,2.82
2017-01-13T10:20:04.517Z,2.77
2017-01-13T10:21:05.292Z,2.77
2017-01-13T10:22:06.051Z,2.87
2017-01-13T10:23:06.816Z,2.9
2017-01-13T10:24:07.582Z,2.97
2017-01-13T10:25:08.314Z,2.9
2017-01-13T10:26:09.069Z,2.87
2017-01-13T10:27:09.814Z,2.89
2017-01-13T10:28:10.593Z,2.87
2017-01-13T10:29:11.360Z,2.89
2017-01-13T10:30:12.140Z,2.87
2017-01-13T10:31:12.893Z,2.93
2017-01-13T10:32:13.745Z,2.95
2017-01-13T10:33:14.523Z,2.97
2017-01-13T10:34:15.275Z,2.92
2017-01-13T10:35:16.113Z,2.98
2017-01-13T10:36:16.871Z,3.04
2017-01-13T10:37:17.627Z,3
2017-01-13T10:38:18.383Z,3
2017-01-13T10:39:19.133Z,3.08
2017-01-13T10:40:19.899Z,3.1
2017-01-13T10:41:20.696Z,3.11
2017-01-13T10:42:21.446Z,3.07
2017-01-13T10:43:22.196Z,3.08
2017-01-13T10:44:22.953Z,3.04
2017-01-13T10:45:23.851Z,3.01
2017-01-13T10:46:24.610Z,3.04
2017-01-13T10:47:25.373Z,3.01
2017-01-13T10:48:26.763Z,2.98
2017-01-13T10:49:27.550Z,3.04
2017-01-13T10:50:28.405Z,3.05
2017-01-13T10:51:29.197Z,3.01
2017-01-13T10:52:29.953Z,3.01
2017-01-13T10:53:30.723Z,3.03
2017-01-13T10:54:31.482Z,3.01
2017-01-13T10:55:32.247Z,3.05
2017-01-13T10:56:32.999Z,3.07
2017-01-13T10:57:33.749Z,3.11
2017-01-13T10:58:34.501Z,3.04
2017-01-13T10:59:35.268Z,3.13
2017-01-13T11:00:36.027Z,3.04
2017-01-13T11:01:36.772Z,3.04
2017-01-13T11:02:37.541Z,3.14
2017-01-13T11:03:38.313Z,3.07
2017-01-13T11:04:39.069Z,3.13
2017-01-13T11:05:39.842Z,3.21
2017-01-13T11:06:40.596Z,3.14
2017-01-13T11:07:41.359Z,3.22
2017-01-13T11:08:42.121Z,3.19
2017-01-13T11:09:42.880Z,3.21
2017-01-13T11:10:43.654Z,3.23
2017-01-13T11:11:44.437Z,3.31
2017-01-13T11:12:45.235Z,3.18
2017-01-13T11:13:45.982Z,3.19
2017-01-13T11:14:46.770Z,3.16
2017-01-13T11:15:47.538Z,3.21
2017-01-13T11:16:48.302Z,3.21
2017-01-13T11:17:49.069Z,3.29
2017-01-13T11:18:49.844Z,3.18
2017-01-13T11:19:50.619Z,3.31
2017-01-13T11:20:51.360Z,3.28
2017-01-13T11:21:52.141Z,3.22
2017-01-13T11:22:52.899Z,3.18
2017-01-13T11:23:53.664Z,3.16
2017-01-13T11:24:54.434Z,3.26
2017-01-13T11:25:55.193Z,3.29
2017-01-13T11:26:55.963Z,3.21
2017-01-13T11:27:56.728Z,3.23
2017-01-13T11:28:59.378Z,3.25
2017-01-13T11:30:00.278Z,3.28
2017-01-13T11:31:01.125Z,3.26
2017-01-13T11:32:02.840Z,3.28
2017-01-13T11:33:05.076Z,3.34
2017-01-13T11:34:09.033Z,3.29
2017-01-13T11:35:11.135Z,3.21
2017-01-13T11:36:14.433Z,3.19
2017-01-13T11:37:28.251Z,3.14
2017-01-13T11:38:30.553Z,3.16
2017-01-13T11:39:33.622Z,3.18
2017-01-13T11:40:35.848Z,3.29
2017-01-13T13:19:47.819Z,4.2
2017-01-13T13:20:48.557Z,4.13
2017-01-13T13:21:49.303Z,4.19
2017-01-13T13:22:50.027Z,4.12
2017-01-13T13:23:50.756Z,4.19
2017-01-13T13:24:51.498Z,4.22
2017-01-13T13:25:52.233Z,4.23
2017-01-13T13:26:52.970Z,4.19
2017-01-13T13:27:53.683Z,4.22
2017-01-13T13:28:54.429Z,4.22
2017-01-13T13:29:55.154Z,4.2
2017-01-13T13:30:55.915Z,4.16
2017-01-13T13:31:56.645Z,4.22
2017-01-13T13:32:57.390Z,4.17
2017-01-13T13:33:58.138Z,4.17
2017-01-13T13:34:58.901Z,4.12
2017-01-13T13:35:59.665Z,4.17
2017-01-13T13:37:00.412Z,4.19
2017-01-13T13:38:01.167Z,4.22
2017-01-13T13:39:01.902Z,4.17
2017-01-13T13:40:02.683Z,4.17
2017-01-13T13:41:03.412Z,4.26
2017-01-13T13:42:04.156Z,4.2
2017-01-13T13:43:04.881Z,4.24
2017-01-13T13:44:05.671Z,4.32
2017-01-13T13:45:06.443Z,4.3
2017-01-13T13:46:07.227Z,4.32
2017-01-13T13:47:07.991Z,4.41
2017-01-13T13:48:08.777Z,4.26
2017-01-13T13:49:09.542Z,4.3
2017-01-13T13:50:10.287Z,4.38
2017-01-13T13:51:11.076Z,4.4
2017-01-13T13:52:11.833Z,4.44
2017-01-13T13:53:12.605Z,4.35
2017-01-13T13:54:13.360Z,4.3
2017-01-13T13:55:14.190Z,4.38
2017-01-13T13:56:15.002Z,4.35
2017-01-13T13:57:15.746Z,4.37
2017-01-13T13:58:16.506Z,4.4
2017-01-13T13:59:17.248Z,4.28
2017-01-13T14:00:18.035Z,4.42
2017-01-13T14:01:18.789Z,4.44
2017-01-13T14:02:19.545Z,4.44
2017-01-13T14:03:20.313Z,4.44
2017-01-13T14:04:21.047Z,4.44
2017-01-13T14:05:21.800Z,4.41
2017-01-13T14:06:22.572Z,4.4
2017-01-13T14:07:23.346Z,4.41
2017-01-13T14:08:24.100Z,4.42
2017-01-13T14:09:24.846Z,4.38
2017-01-13T14:10:25.588Z,4.41
2017-01-13T14:11:26.357Z,4.49
2017-01-13T14:12:27.111Z,4.5
2017-01-13T14:13:27.857Z,4.53
2017-01-13T14:14:28.597Z,4.55
2017-01-13T14:15:29.348Z,4.55
2017-01-13T14:16:30.118Z,4.55
2017-01-13T14:17:30.867Z,4.55
2017-01-13T14:18:31.618Z,4.58
2017-01-13T14:19:32.425Z,4.62
2017-01-13T14:20:33.156Z,4.58
2017-01-13T14:21:33.913Z,4.55
2017-01-13T14:22:34.675Z,4.66
2017-01-13T14:23:35.431Z,4.56
2017-01-13T14:24:36.172Z,4.56
2017-01-13T14:25:36.936Z,4.48
2017-01-13T14:26:37.695Z,4.56
2017-01-13T14:27:38.502Z,4.45
2017-01-13T14:28:39.271Z,4.48
2017-01-13T14:29:40.266Z,4.49
2017-01-13T14:30:41.726Z,4.49
2017-01-13T14:31:42.495Z,4.52
2017-01-13T14:32:44.249Z,4.55
2017-01-13T14:33:45.120Z,4.5
2017-01-13T14:34:45.871Z,4.5
2017-01-13T14:35:46.624Z,4.52
2017-01-13T14:36:47.364Z,4.53
2017-01-13T14:37:48.106Z,4.41
2017-01-13T14:38:48.881Z,4.42
2017-01-13T14:39:49.650Z,4.42
2017-01-13T14:40:50.405Z,4.34
2017-01-13T14:41:51.165Z,4.28
2017-01-13T14:42:51.915Z,4.4
2017-01-13T14:43:52.724Z,4.28
2017-01-13T14:44:53.472Z,4.3
2017-01-13T14:45:54.219Z,4.26
2017-01-13T14:46:55.792Z,4.26
2017-01-13T14:47:56.562Z,4.17
2017-01-13T14:48:57.340Z,4.22
2017-01-13T14:49:58.076Z,4.13
2017-01-13T14:50:58.835Z,4.19
2017-01-13T14:51:59.588Z,4.01
2017-01-13T14:53:00.346Z,4.16
2017-01-13T14:54:01.074Z,3.99
2017-01-13T14:55:02.843Z,4.05
2017-01-13T14:56:03.596Z,3.95
2017-01-13T14:57:04.335Z,4.01
2017-01-13T14:58:05.100Z,3.95
2017-01-13T14:59:05.856Z,3.92
2017-01-13T15:00:06.586Z,3.87
2017-01-13T15:01:07.337Z,3.86
2017-01-13T15:02:08.101Z,3.87
2017-01-13T15:03:08.869Z,3.88
2017-01-13T15:04:09.654Z,3.76
2017-01-13T15:05:10.472Z,3.81
2017-01-13T15:06:11.226Z,3.69
2017-01-13T15:07:11.973Z,3.77
2017-01-13T15:08:12.756Z,3.66
2017-01-13T15:09:15.943Z,3.78
2017-01-13T15:10:16.868Z,3.74
2017-01-13T15:11:17.603Z,3.62
2017-01-13T15:12:18.351Z,3.7